Menu Close Menu
Station Historical Data
Daily Summary for December 5, 2017 Units:  Both    English   Metric
« Previous Day
Next Day »
Daily Weekly Monthly Yearly Custom
  High: Low: Average:
Temperature: 67.5 °F /  19.7 °C 53.9 °F /  12.2 °C 58 °F /  14.4 °C
Dew Point: 60.3 °F /  15.7 °C 48.7 °F /  9.3 °C 53.9 °F /  12.2 °C
Humidity: 93% 73% 86%
Wind Speed: 8.1mph /  13km/h - 1.7mph /  2.7km/h
Wind Gust: 8.1mph /  13km/h - -
Wind- - West
Pressure: 30.25 in /  1024.3 hPa 30.04 in /  1017.2 hPa -
Precipitation: 0.50 in /  12.7 mm    
Historical Graphs
 
 
Tabular Data for December 5, 2017
Time Temperature Dew Point Pressure Wind Wind Speed Wind Gust Humidity Rainfall Rate (Hourly) solar Conditions
00:02 55.5 °F /  13.1 °C 48.8 °F /  9.3 °C 30.25in /  1024.3hPa West 1.2mph /  1.9km/h   78% 0.00in /  0mm WeatherDisplay:10.37 W/m2 SCT
00:07 55.6 °F /  13.1 °C 48.8 °F /  9.3 °C 30.25in /  1024.3hPa Calm     78% 0.00in /  0mm WeatherDisplay:10.37 W/m2 SCT
00:12 55.7 °F /  13.2 °C 48.9 °F /  9.4 °C 30.25in /  1024.3hPa Calm     78% 0.00in /  0mm WeatherDisplay:10.37 W/m2 SCT
00:18 55.8 °F /  13.2 °C 48.7 °F /  9.3 °C 30.25in /  1024.3hPa West 2.3mph /  3.7km/h 2.3mph /  3.7km/h 77% 0.00in /  0mm WeatherDisplay:10.37 W/m2 SCT
00:23 55.8 °F /  13.2 °C 48.7 °F /  9.3 °C 30.25in /  1024.3hPa West 2.3mph /  3.7km/h 2.3mph /  3.7km/h 77% 0.00in /  0mm WeatherDisplay:10.37 W/m2 SCT
00:28 55.8 °F /  13.2 °C 49.0 °F /  9.4 °C 30.25in /  1024.3hPa West 1.2mph /  1.9km/h 1.2mph /  1.9km/h 78% 0.00in /  0mm WeatherDisplay:10.37 W/m2 SCT
00:33 55.8 °F /  13.2 °C 49.0 °F /  9.4 °C 30.24in /  1023.9hPa West 1.2mph /  1.9km/h 1.2mph /  1.9km/h 78% 0.00in /  0mm WeatherDisplay:10.37 W/m2 SCT
00:38 55.8 °F /  13.2 °C 49.0 °F /  9.4 °C 30.24in /  1023.9hPa West 1.2mph /  1.9km/h   78% 0.00in /  0mm WeatherDisplay:10.37 W/m2 SCT
00:43 55.8 °F /  13.2 °C 49.0 °F /  9.4 °C 30.24in /  1023.9hPa West 1.2mph /  1.9km/h   78% 0.00in /  0mm WeatherDisplay:10.37 W/m2 SCT
00:48 55.8 °F /  13.2 °C 49.0 °F /  9.4 °C 30.24in /  1023.9hPa West 1.2mph /  1.9km/h   78% 0.00in /  0mm WeatherDisplay:10.37 W/m2 SCT
00:53 55.8 °F /  13.2 °C 49.0 °F /  9.4 °C 30.24in /  1023.9hPa West 1.2mph /  1.9km/h   78% 0.00in /  0mm WeatherDisplay:10.37 W/m2 SCT
00:58 55.8 °F /  13.2 °C 49.0 °F /  9.4 °C 30.23in /  1023.6hPa West 1.2mph /  1.9km/h   78% 0.00in /  0mm WeatherDisplay:10.37 W/m2 SCT
01:03 55.8 °F /  13.2 °C 49.0 °F /  9.4 °C 30.24in /  1023.9hPa West 1.2mph /  1.9km/h   78% 0.00in /  0mm WeatherDisplay:10.37 W/m2 FEW
01:08 55.8 °F /  13.2 °C 49.4 °F /  9.7 °C 30.24in /  1023.9hPa Calm     79% 0.00in /  0mm WeatherDisplay:10.37 W/m2 FEW
01:13 55.8 °F /  13.2 °C 49.4 °F /  9.7 °C 30.24in /  1023.9hPa West 1.2mph /  1.9km/h   79% 0.00in /  0mm WeatherDisplay:10.37 W/m2 FEW
01:18 55.7 °F /  13.2 °C 49.3 °F /  9.6 °C 30.24in /  1023.9hPa West 1.2mph /  1.9km/h 1.2mph /  1.9km/h 79% 0.00in /  0mm WeatherDisplay:10.37 W/m2 FEW
01:24 55.6 °F /  13.1 °C 49.2 °F /  9.6 °C 30.24in /  1023.9hPa West 1.2mph /  1.9km/h   79% 0.00in /  0mm WeatherDisplay:10.37 W/m2 FEW
01:29 55.4 °F /  13 °C 49.0 °F /  9.4 °C 30.24in /  1023.9hPa West 1.2mph /  1.9km/h   79% 0.00in /  0mm WeatherDisplay:10.37 W/m2 FEW
01:34 55.3 °F /  12.9 °C 49.2 °F /  9.6 °C 30.24in /  1023.9hPa West 1.2mph /  1.9km/h   80% 0.00in /  0mm WeatherDisplay:10.37 W/m2 FEW
01:39 55.3 °F /  12.9 °C 49.2 °F /  9.6 °C 30.24in /  1023.9hPa Calm     80% 0.00in /  0mm WeatherDisplay:10.37 W/m2 FEW
01:44 55.1 °F /  12.8 °C 49.0 °F /  9.4 °C 30.25in /  1024.3hPa Calm     80% 0.00in /  0mm WeatherDisplay:10.37 W/m2 FEW
01:49 55.2 °F /  12.9 °C 49.1 °F /  9.5 °C 30.25in /  1024.3hPa West 1.2mph /  1.9km/h 1.2mph /  1.9km/h 80% 0.00in /  0mm WeatherDisplay:10.37 W/m2 FEW
01:54 55.3 °F /  12.9 °C 49.2 °F /  9.6 °C 30.25in /  1024.3hPa West 1.2mph /  1.9km/h   80% 0.00in /  0mm WeatherDisplay:10.37 W/m2 FEW
02:00 55.3 °F /  12.9 °C 49.2 °F /  9.6 °C 30.25in /  1024.3hPa West 1.2mph /  1.9km/h   80% 0.00in /  0mm WeatherDisplay:10.37 W/m2 FEW
02:05 55.3 °F /  12.9 °C 49.2 °F /  9.6 °C 30.25in /  1024.3hPa Calm     80% 0.00in /  0mm WeatherDisplay:10.37 W/m2 SCT
02:10 55.3 °F /  12.9 °C 49.6 °F /  9.8 °C 30.24in /  1023.9hPa Calm   1.0mph /  1.6km/h 81% 0.00in /  0mm WeatherDisplay:10.37 W/m2 SCT
02:15 55.3 °F /  12.9 °C 49.6 °F /  9.8 °C 30.24in /  1023.9hPa WNW 1.2mph /  1.9km/h   81% 0.00in /  0mm WeatherDisplay:10.37 W/m2 SCT
02:20 55.3 °F /  12.9 °C 49.2 °F /  9.6 °C 30.24in /  1023.9hPa WNW 1.2mph /  1.9km/h 1.2mph /  1.9km/h 80% 0.00in /  0mm WeatherDisplay:10.37 W/m2 SCT
02:25 55.4 °F /  13 °C 49.7 °F /  9.8 °C 30.24in /  1023.9hPa WNW 1.2mph /  1.9km/h   81% 0.00in /  0mm WeatherDisplay:10.37 W/m2 SCT
02:35 55.4 °F /  13 °C 49.7 °F /  9.8 °C 30.24in /  1023.9hPa WNW 1.2mph /  1.9km/h   81% 0.00in /  0mm WeatherDisplay:10.37 W/m2 SCT
02:40 55.4 °F /  13 °C 49.7 °F /  9.8 °C 30.24in /  1023.9hPa WNW 1.2mph /  1.9km/h   81% 0.00in /  0mm WeatherDisplay:10.37 W/m2 SCT
02:44 55.4 °F /  13 °C 49.7 °F /  9.8 °C 30.24in /  1023.9hPa WNW 1.2mph /  1.9km/h   81% 0.00in /  0mm WeatherDisplay:10.37 W/m2 SCT
02:49 55.2 °F /  12.9 °C 49.5 °F /  9.7 °C 30.24in /  1023.9hPa WNW 1.2mph /  1.9km/h   81% 0.00in /  0mm WeatherDisplay:10.37 W/m2 SCT
02:54 55.1 °F /  12.8 °C 49.4 °F /  9.7 °C 30.23in /  1023.6hPa Calm     81% 0.00in /  0mm WeatherDisplay:10.37 W/m2 SCT
02:59 55.1 °F /  12.8 °C 49.4 °F /  9.7 °C 30.23in /  1023.6hPa Calm     81% 0.00in /  0mm WeatherDisplay:10.37 W/m2 SCT
03:04 55.1 °F /  12.8 °C 49.4 °F /  9.7 °C 30.23in /  1023.6hPa Calm     81% 0.00in /  0mm WeatherDisplay:10.37 W/m2 SCT
03:09 55.2 °F /  12.9 °C 49.8 °F /  9.9 °C 30.24in /  1023.9hPa Calm     82% 0.00in /  0mm WeatherDisplay:10.37 W/m2 SCT
03:14 55.3 °F /  12.9 °C 49.9 °F /  9.9 °C 30.23in /  1023.6hPa Calm     82% 0.00in /  0mm WeatherDisplay:10.37 W/m2 SCT
03:19 55.4 °F /  13 °C 50.0 °F /  10 °C 30.24in /  1023.9hPa Calm     82% 0.00in /  0mm WeatherDisplay:10.37 W/m2 SCT
03:24 55.5 °F /  13.1 °C 50.1 °F /  10.1 °C 30.24in /  1023.9hPa Calm     82% 0.00in /  0mm WeatherDisplay:10.37 W/m2 SCT
03:29 55.6 °F /  13.1 °C 50.2 °F /  10.1 °C 30.24in /  1023.9hPa Calm     82% 0.00in /  0mm WeatherDisplay:10.37 W/m2 SCT
03:34 55.6 °F /  13.1 °C 50.2 °F /  10.1 °C 30.24in /  1023.9hPa Calm     82% 0.00in /  0mm WeatherDisplay:10.37 W/m2 SCT
03:40 55.7 °F /  13.2 °C 50.6 °F /  10.3 °C 30.24in /  1023.9hPa Calm     83% 0.00in /  0mm WeatherDisplay:10.37 W/m2 SCT
03:45 55.8 °F /  13.2 °C 50.7 °F /  10.4 °C 30.24in /  1023.9hPa Calm     83% 0.00in /  0mm WeatherDisplay:10.37 W/m2 SCT
03:50 55.9 °F /  13.3 °C 50.8 °F /  10.4 °C 30.23in /  1023.6hPa Calm     83% 0.00in /  0mm WeatherDisplay:10.37 W/m2 SCT
03:55 56.0 °F /  13.3 °C 51.2 °F /  10.7 °C 30.23in /  1023.6hPa Calm     84% 0.00in /  0mm WeatherDisplay:10.37 W/m2 SCT
04:00 56.1 °F /  13.4 °C 51.3 °F /  10.7 °C 30.23in /  1023.6hPa Calm     84% 0.00in /  0mm WeatherDisplay:10.37 W/m2 SCT
04:05 56.2 °F /  13.4 °C 51.7 °F /  10.9 °C 30.23in /  1023.6hPa Calm     85% 0.00in /  0mm WeatherDisplay:10.37 W/m2 OVC
04:10 56.3 °F /  13.5 °C 51.8 °F /  11 °C 30.23in /  1023.6hPa Calm     85% 0.00in /  0mm WeatherDisplay:10.37 W/m2 OVC
04:20 56.3 °F /  13.5 °C 51.8 °F /  11 °C 30.23in /  1023.6hPa Calm     85% 0.00in /  0mm WeatherDisplay:10.37 W/m2 OVC
04:25 56.4 °F /  13.6 °C 51.9 °F /  11.1 °C 30.22in /  1023.2hPa Calm     85% 0.00in /  0mm WeatherDisplay:10.37 W/m2 OVC
04:30 56.4 °F /  13.6 °C 52.3 °F /  11.3 °C 30.22in /  1023.2hPa Calm     86% 0.00in /  0mm WeatherDisplay:10.37 W/m2 OVC
04:35 56.4 °F /  13.6 °C 52.3 °F /  11.3 °C 30.22in /  1023.2hPa Calm     86% 0.00in /  0mm WeatherDisplay:10.37 W/m2 OVC
04:40 56.5 °F /  13.6 °C 52.4 °F /  11.3 °C 30.22in /  1023.2hPa Calm     86% 0.00in /  0mm WeatherDisplay:10.37 W/m2 OVC
04:46 56.5 °F /  13.6 °C 52.4 °F /  11.3 °C 30.22in /  1023.2hPa Calm     86% 0.00in /  0mm WeatherDisplay:10.37 W/m2 OVC
04:51 56.5 °F /  13.6 °C 52.4 °F /  11.3 °C 30.22in /  1023.2hPa Calm     86% 0.00in /  0mm WeatherDisplay:10.37 W/m2 OVC
04:56 56.5 °F /  13.6 °C 52.7 °F /  11.5 °C 30.21in /  1022.9hPa WNW 1.2mph /  1.9km/h 1.2mph /  1.9km/h 87% 0.00in /  0mm WeatherDisplay:10.37 W/m2 OVC
05:01 56.5 °F /  13.6 °C 52.7 °F /  11.5 °C 30.22in /  1023.2hPa WNW 1.2mph /  1.9km/h   87% 0.00in /  0mm WeatherDisplay:10.37 W/m2 OVC
05:06 56.5 °F /  13.6 °C 52.7 °F /  11.5 °C 30.22in /  1023.2hPa NW 1.2mph /  1.9km/h   87% 0.00in /  0mm WeatherDisplay:10.37 W/m2 OVC
05:11 56.5 °F /  13.6 °C 52.7 °F /  11.5 °C 30.21in /  1022.9hPa NW 1.2mph /  1.9km/h 1.2mph /  1.9km/h 87% 0.00in /  0mm WeatherDisplay:10.37 W/m2 OVC
05:16 56.5 °F /  13.6 °C 53.0 °F /  11.7 °C 30.21in /  1022.9hPa NW 1.2mph /  1.9km/h 1.2mph /  1.9km/h 88% 0.00in /  0mm WeatherDisplay:10.37 W/m2 OVC
05:21 56.5 °F /  13.6 °C 53.0 °F /  11.7 °C 30.21in /  1022.9hPa NW 1.2mph /  1.9km/h   88% 0.00in /  0mm WeatherDisplay:10.37 W/m2 OVC
05:26 56.5 °F /  13.6 °C 53.0 °F /  11.7 °C 30.21in /  1022.9hPa NW 1.2mph /  1.9km/h 1.2mph /  1.9km/h 88% 0.00in /  0mm WeatherDisplay:10.37 W/m2 OVC
05:31 56.6 °F /  13.7 °C 53.1 °F /  11.7 °C 30.21in /  1022.9hPa NW 2.3mph /  3.7km/h   88% 0.00in /  0mm WeatherDisplay:10.37 W/m2 OVC
05:36 56.6 °F /  13.7 °C 53.1 °F /  11.7 °C 30.21in /  1022.9hPa NW 2.3mph /  3.7km/h   88% 0.00in /  0mm WeatherDisplay:10.37 W/m2 OVC
05:41 56.6 °F /  13.7 °C 53.1 °F /  11.7 °C 30.21in /  1022.9hPa NW 2.3mph /  3.7km/h   88% 0.00in /  0mm WeatherDisplay:10.37 W/m2 OVC
05:47 56.6 °F /  13.7 °C 53.4 °F /  11.9 °C 30.21in /  1022.9hPa NW 2.3mph /  3.7km/h   89% 0.00in /  0mm WeatherDisplay:10.37 W/m2 OVC
05:52 56.6 °F /  13.7 °C 53.4 °F /  11.9 °C 30.21in /  1022.9hPa NW 1.2mph /  1.9km/h 1.2mph /  1.9km/h 89% 0.00in /  0mm WeatherDisplay:10.37 W/m2 OVC
05:57 56.7 °F /  13.7 °C 53.5 °F /  11.9 °C 30.21in /  1022.9hPa NW 1.2mph /  1.9km/h   89% 0.00in /  0mm WeatherDisplay:10.37 W/m2 OVC
06:02 56.8 °F /  13.8 °C 53.6 °F /  12 °C 30.21in /  1022.9hPa WNW 1.2mph /  1.9km/h 1.2mph /  1.9km/h 89% 0.00in /  0mm WeatherDisplay:10.37 W/m2 BKN
06:07 56.8 °F /  13.8 °C 53.6 °F /  12 °C 30.21in /  1022.9hPa WNW 1.2mph /  1.9km/h 1.2mph /  1.9km/h 89% 0.00in /  0mm WeatherDisplay:10.37 W/m2 BKN
06:17 56.8 °F /  13.8 °C 53.6 °F /  12 °C 30.20in /  1022.6hPa NW 2.3mph /  3.7km/h 2.3mph /  3.7km/h 89% 0.00in /  0mm WeatherDisplay:10.37 W/m2 BKN
06:22 56.8 °F /  13.8 °C 53.6 °F /  12 °C 30.21in /  1022.9hPa NW 2.3mph /  3.7km/h   89% 0.00in /  0mm WeatherDisplay:10.37 W/m2 OVC
06:32 56.9 °F /  13.8 °C 53.7 °F /  12.1 °C 30.21in /  1022.9hPa NW 1.2mph /  1.9km/h   89% 0.00in /  0mm WeatherDisplay:10.37 W/m2 SCT
06:37 56.9 °F /  13.8 °C 54.0 °F /  12.2 °C 30.20in /  1022.6hPa NW 2.3mph /  3.7km/h 2.3mph /  3.7km/h 90% 0.00in /  0mm WeatherDisplay:10.37 W/m2 SCT
06:42 56.8 °F /  13.8 °C 53.6 °F /  12 °C 30.20in /  1022.6hPa NW 2.3mph /  3.7km/h   89% 0.00in /  0mm WeatherDisplay:10.37 W/m2 SCT
06:47 56.8 °F /  13.8 °C 53.9 °F /  12.2 °C 30.21in /  1022.9hPa NW 2.3mph /  3.7km/h 2.3mph /  3.7km/h 90% 0.00in /  0mm WeatherDisplay:10.37 W/m2 SCT
06:53 56.9 °F /  13.8 °C 54.0 °F /  12.2 °C 30.21in /  1022.9hPa WNW 2.3mph /  3.7km/h 2.3mph /  3.7km/h 90% 0.00in /  0mm WeatherDisplay:10.37 W/m2 SCT
06:58 56.9 °F /  13.8 °C 54.0 °F /  12.2 °C 30.20in /  1022.6hPa WNW 2.3mph /  3.7km/h 2.3mph /  3.7km/h 90% 0.00in /  0mm WeatherDisplay:10.37 W/m2 SCT
07:03 57.0 °F /  13.9 °C 54.1 °F /  12.3 °C 30.20in /  1022.6hPa WNW 2.3mph /  3.7km/h 2.3mph /  3.7km/h 90% 0.00in /  0mm WeatherDisplay:10.37 W/m2 OVC
07:08 57.0 °F /  13.9 °C 54.1 °F /  12.3 °C 30.20in /  1022.6hPa NW 2.3mph /  3.7km/h 2.3mph /  3.7km/h 90% 0.00in /  0mm WeatherDisplay:10.37 W/m2 OVC
07:13 57.1 °F /  13.9 °C 54.2 °F /  12.3 °C 30.20in /  1022.6hPa NW 2.3mph /  3.7km/h   90% 0.00in /  0mm WeatherDisplay:10.37 W/m2 OVC
07:18 57.1 °F /  13.9 °C 54.2 °F /  12.3 °C 30.20in /  1022.6hPa NW 3.5mph /  5.6km/h 3.5mph /  5.6km/h 90% 0.00in /  0mm WeatherDisplay:10.37 W/m2 OVC
07:23 57.1 °F /  13.9 °C 54.2 °F /  12.3 °C 30.20in /  1022.6hPa NW 3.5mph /  5.6km/h   90% 0.00in /  0mm WeatherDisplay:10.37 W/m2 OVC
07:28 57.1 °F /  13.9 °C 54.2 °F /  12.3 °C 30.21in /  1022.9hPa NW 3.5mph /  5.6km/h 3.5mph /  5.6km/h 90% 0.00in /  0mm WeatherDisplay:10.37 W/m2 OVC
07:33 57.1 °F /  13.9 °C 54.2 °F /  12.3 °C 30.21in /  1022.9hPa NNW 2.3mph /  3.7km/h 2.3mph /  3.7km/h 90% 0.00in /  0mm WeatherDisplay:10.37 W/m2 OVC
07:38 57.1 °F /  13.9 °C 54.2 °F /  12.3 °C 30.21in /  1022.9hPa NNW 3.5mph /  5.6km/h 3.5mph /  5.6km/h 90% 0.00in /  0mm WeatherDisplay:10.37 W/m2 OVC
07:43 57.2 °F /  14 °C 54.3 °F /  12.4 °C 30.21in /  1022.9hPa NW 3.5mph /  5.6km/h 3.5mph /  5.6km/h 90% 0.00in /  0mm WeatherDisplay:10.37 W/m2 OVC
07:48 57.2 °F /  14 °C 54.3 °F /  12.4 °C 30.21in /  1022.9hPa NW 2.3mph /  3.7km/h 2.3mph /  3.7km/h 90% 0.00in /  0mm WeatherDisplay:10.37 W/m2 OVC
07:53 57.2 °F /  14 °C 54.3 °F /  12.4 °C 30.20in /  1022.6hPa NW 2.3mph /  3.7km/h 2.3mph /  3.7km/h 90% 0.00in /  0mm WeatherDisplay:10.37 W/m2 OVC
07:58 57.2 °F /  14 °C 54.3 °F /  12.4 °C 30.20in /  1022.6hPa NW 2.3mph /  3.7km/h   90% 0.00in /  0mm WeatherDisplay:10.37 W/m2 OVC
08:04 57.2 °F /  14 °C 54.3 °F /  12.4 °C 30.21in /  1022.9hPa NW 2.3mph /  3.7km/h   90% 0.00in /  0mm WeatherDisplay:10.37 W/m2 OVC
08:09 57.2 °F /  14 °C 54.3 °F /  12.4 °C 30.21in /  1022.9hPa NW 1.2mph /  1.9km/h 1.2mph /  1.9km/h 90% 0.00in /  0mm WeatherDisplay:10.37 W/m2 OVC
08:14 57.3 °F /  14.1 °C 54.4 °F /  12.4 °C 30.21in /  1022.9hPa WNW 3.5mph /  5.6km/h 3.5mph /  5.6km/h 90% 0.00in /  0mm WeatherDisplay:10.37 W/m2 OVC
08:19 57.3 °F /  14.1 °C 54.4 °F /  12.4 °C 30.21in /  1022.9hPa NW 3.5mph /  5.6km/h 3.5mph /  5.6km/h 90% 0.00in /  0mm WeatherDisplay:10.37 W/m2 OVC
08:24 57.4 °F /  14.1 °C 54.5 °F /  12.5 °C 30.21in /  1022.9hPa NW 2.3mph /  3.7km/h   90% 0.00in /  0mm WeatherDisplay:10.37 W/m2 OVC
08:29 57.5 °F /  14.2 °C 54.6 °F /  12.6 °C 30.20in /  1022.6hPa NW 2.3mph /  3.7km/h 2.3mph /  3.7km/h 90% 0.00in /  0mm WeatherDisplay:10.37 W/m2 OVC
08:34 57.5 °F /  14.2 °C 54.6 °F /  12.6 °C 30.20in /  1022.6hPa NW 2.3mph /  3.7km/h   90% 0.00in /  0mm WeatherDisplay:10.37 W/m2 OVC
08:39 57.7 °F /  14.3 °C 54.8 °F /  12.7 °C 30.20in /  1022.6hPa NW 2.3mph /  3.7km/h 2.3mph /  3.7km/h 90% 0.00in /  0mm WeatherDisplay:10.37 W/m2 OVC
08:44 57.9 °F /  14.4 °C 55.0 °F /  12.8 °C 30.20in /  1022.6hPa NW 3.5mph /  5.6km/h 3.5mph /  5.6km/h 90% 0.00in /  0mm WeatherDisplay:10.37 W/m2 OVC
08:49 58.0 °F /  14.4 °C 54.8 °F /  12.7 °C 30.20in /  1022.6hPa NW 3.5mph /  5.6km/h 3.5mph /  5.6km/h 89% 0.00in /  0mm WeatherDisplay:10.37 W/m2 OVC
08:54 58.2 °F /  14.6 °C 55.0 °F /  12.8 °C 30.20in /  1022.6hPa NW 3.5mph /  5.6km/h   89% 0.00in /  0mm WeatherDisplay:10.37 W/m2 OVC
08:59 58.4 °F /  14.7 °C 55.2 °F /  12.9 °C 30.20in /  1022.6hPa NW 3.5mph /  5.6km/h   89% 0.00in /  0mm WeatherDisplay:10.37 W/m2 OVC
09:05 58.5 °F /  14.7 °C 55.0 °F /  12.8 °C 30.21in /  1022.9hPa Calm   3.0mph /  4.8km/h 88% 0.00in /  0mm WeatherDisplay:10.37 W/m2 OVC
09:10 58.6 °F /  14.8 °C 55.1 °F /  12.8 °C 30.20in /  1022.6hPa NW 3.5mph /  5.6km/h 3.5mph /  5.6km/h 88% 0.00in /  0mm WeatherDisplay:10.37 W/m2 OVC
09:15 58.7 °F /  14.8 °C 55.2 °F /  12.9 °C 30.21in /  1022.9hPa NW 2.3mph /  3.7km/h   88% 0.00in /  0mm WeatherDisplay:10.37 W/m2 OVC
09:20 58.8 °F /  14.9 °C 55.3 °F /  12.9 °C 30.20in /  1022.6hPa WNW 2.3mph /  3.7km/h 2.3mph /  3.7km/h 88% 0.00in /  0mm WeatherDisplay:10.37 W/m2 OVC
09:25 58.9 °F /  14.9 °C 55.4 °F /  13 °C 30.20in /  1022.6hPa NW 2.3mph /  3.7km/h   88% 0.00in /  0mm WeatherDisplay:10.37 W/m2 SCT
09:30 59.0 °F /  15 °C 55.4 °F /  13 °C 30.21in /  1022.9hPa NW 2.3mph /  3.7km/h   88% 0.00in /  0mm WeatherDisplay:10.37 W/m2 SCT
09:35 59.2 °F /  15.1 °C 55.6 °F /  13.1 °C 30.21in /  1022.9hPa NW 1.2mph /  1.9km/h   88% 0.00in /  0mm WeatherDisplay:10.37 W/m2 BKN
09:40 59.4 °F /  15.2 °C 55.8 °F /  13.2 °C 30.20in /  1022.6hPa NW 1.2mph /  1.9km/h   88% 0.00in /  0mm WeatherDisplay:10.37 W/m2 BKN
09:45 59.7 °F /  15.4 °C 55.8 °F /  13.2 °C 30.20in /  1022.6hPa NW 1.2mph /  1.9km/h 1.2mph /  1.9km/h 87% 0.00in /  0mm WeatherDisplay:10.37 W/m2 BKN
09:50 59.9 °F /  15.5 °C 56.0 °F /  13.3 °C 30.20in /  1022.6hPa NW 1.2mph /  1.9km/h   87% 0.00in /  0mm WeatherDisplay:10.37 W/m2 BKN
09:55 60.1 °F /  15.6 °C 55.9 °F /  13.3 °C 30.19in /  1022.2hPa NW 1.2mph /  1.9km/h 1.2mph /  1.9km/h 86% 0.00in /  0mm WeatherDisplay:10.37 W/m2 BKN
10:00 60.1 °F /  15.6 °C 55.9 °F /  13.3 °C 30.19in /  1022.2hPa NW 3.5mph /  5.6km/h 3.5mph /  5.6km/h 86% 0.00in /  0mm WeatherDisplay:10.37 W/m2 BKN
10:05 60.1 °F /  15.6 °C 56.2 °F /  13.4 °C 30.19in /  1022.2hPa NW 3.5mph /  5.6km/h 3.5mph /  5.6km/h 87% 0.00in /  0mm WeatherDisplay:10.37 W/m2 BKN
10:11 60.3 °F /  15.7 °C 56.1 °F /  13.4 °C 30.19in /  1022.2hPa NW 2.3mph /  3.7km/h   86% 0.00in /  0mm WeatherDisplay:10.37 W/m2 BKN
10:16 60.4 °F /  15.8 °C 56.2 °F /  13.4 °C 30.19in /  1022.2hPa NW 2.3mph /  3.7km/h   86% 0.00in /  0mm WeatherDisplay:10.37 W/m2 OVC
10:21 60.5 °F /  15.8 °C 56.3 °F /  13.5 °C 30.19in /  1022.2hPa WNW 2.3mph /  3.7km/h 2.3mph /  3.7km/h 86% 0.00in /  0mm WeatherDisplay:10.37 W/m2 OVC
10:26 60.7 °F /  15.9 °C 56.5 °F /  13.6 °C 30.19in /  1022.2hPa WNW 1.2mph /  1.9km/h   86% 0.00in /  0mm WeatherDisplay:10.37 W/m2 OVC
10:31 60.8 °F /  16 °C 56.6 °F /  13.7 °C 30.19in /  1022.2hPa WNW 1.2mph /  1.9km/h   86% 0.00in /  0mm WeatherDisplay:10.37 W/m2 OVC
10:36 60.9 °F /  16.1 °C 56.7 °F /  13.7 °C 30.19in /  1022.2hPa NW 1.2mph /  1.9km/h   86% 0.00in /  0mm WeatherDisplay:10.37 W/m2 OVC
10:41 61.0 °F /  16.1 °C 56.8 °F /  13.8 °C 30.19in /  1022.2hPa NW 2.3mph /  3.7km/h 2.3mph /  3.7km/h 86% 0.00in /  0mm WeatherDisplay:10.37 W/m2 SCT
10:46 61.1 °F /  16.2 °C 56.9 °F /  13.8 °C 30.18in /  1021.9hPa NW 2.3mph /  3.7km/h 2.3mph /  3.7km/h 86% 0.00in /  0mm WeatherDisplay:10.37 W/m2 SCT
10:51 61.3 °F /  16.3 °C 57.1 °F /  13.9 °C 30.18in /  1021.9hPa NW 2.3mph /  3.7km/h 2.3mph /  3.7km/h 86% 0.00in /  0mm WeatherDisplay:10.37 W/m2 SCT
10:56 61.4 °F /  16.3 °C 57.2 °F /  14 °C 30.18in /  1021.9hPa NW 2.3mph /  3.7km/h   86% 0.00in /  0mm WeatherDisplay:10.37 W/m2 SCT
11:01 61.5 °F /  16.4 °C 57.3 °F /  14.1 °C 30.17in /  1021.6hPa NW 2.3mph /  3.7km/h   86% 0.00in /  0mm WeatherDisplay:10.37 W/m2 OVC
11:06 61.6 °F /  16.4 °C 57.4 °F /  14.1 °C 30.17in /  1021.6hPa NW 1.2mph /  1.9km/h   86% 0.00in /  0mm WeatherDisplay:10.37 W/m2 OVC
11:12 61.7 °F /  16.5 °C 57.1 °F /  13.9 °C 30.17in /  1021.6hPa WNW 2.3mph /  3.7km/h   85% 0.00in /  0mm WeatherDisplay:10.37 W/m2 OVC
11:17 61.9 °F /  16.6 °C 57.3 °F /  14.1 °C 30.17in /  1021.6hPa WNW 2.3mph /  3.7km/h   85% 0.00in /  0mm WeatherDisplay:10.37 W/m2 OVC
11:22 62.0 °F /  16.7 °C 57.4 °F /  14.1 °C 30.17in /  1021.6hPa Calm     85% 0.00in /  0mm WeatherDisplay:10.37 W/m2 OVC
11:27 62.0 °F /  16.7 °C 57.4 °F /  14.1 °C 30.17in /  1021.6hPa Calm     85% 0.00in /  0mm WeatherDisplay:10.37 W/m2 OVC
11:32 62.1 °F /  16.7 °C 57.5 °F /  14.2 °C 30.17in /  1021.6hPa Calm     85% 0.00in /  0mm WeatherDisplay:10.37 W/m2 OVC
11:37 62.1 °F /  16.7 °C 57.5 °F /  14.2 °C 30.16in /  1021.2hPa WNW 1.2mph /  1.9km/h   85% 0.00in /  0mm WeatherDisplay:10.37 W/m2 OVC
11:42 62.2 °F /  16.8 °C 57.6 °F /  14.2 °C 30.16in /  1021.2hPa WNW 1.2mph /  1.9km/h   85% 0.00in /  0mm WeatherDisplay:10.37 W/m2 OVC
11:47 62.2 °F /  16.8 °C 57.6 °F /  14.2 °C 30.16in /  1021.2hPa WNW 1.2mph /  1.9km/h 1.2mph /  1.9km/h 85% 0.00in /  0mm WeatherDisplay:10.37 W/m2 OVC
11:55 62.3 °F /  16.8 °C 57.7 °F /  14.3 °C 30.15in /  1020.9hPa Calm     85% 0.00in /  0mm WeatherDisplay:10.37 W/m2
12:00 62.6 °F /  17 °C 57.7 °F /  14.3 °C 30.15in /  1020.9hPa NNW 1.2mph /  1.9km/h   84% 0.00in /  0mm WeatherDisplay:10.37 W/m2 OVC
12:05 62.7 °F /  17.1 °C 57.8 °F /  14.3 °C 30.14in /  1020.5hPa Calm   1.0mph /  1.6km/h 84% 0.00in /  0mm WeatherDisplay:10.37 W/m2 OVC
12:10 62.8 °F /  17.1 °C 57.9 °F /  14.4 °C 30.14in /  1020.5hPa Calm   1.0mph /  1.6km/h 84% 0.00in /  0mm WeatherDisplay:10.37 W/m2 OVC
12:15 62.8 °F /  17.1 °C 57.9 °F /  14.4 °C 30.13in /  1020.2hPa WNW 1.2mph /  1.9km/h 1.2mph /  1.9km/h 84% 0.00in /  0mm WeatherDisplay:10.37 W/m2 OVC
12:20 62.9 °F /  17.2 °C 58.0 °F /  14.4 °C 30.13in /  1020.2hPa WNW 2.3mph /  3.7km/h 2.3mph /  3.7km/h 84% 0.00in /  0mm WeatherDisplay:10.37 W/m2 OVC
12:25 62.9 °F /  17.2 °C 58.0 °F /  14.4 °C 30.12in /  1019.9hPa WNW 2.3mph /  3.7km/h   84% 0.00in /  0mm WeatherDisplay:10.37 W/m2 OVC
12:30 63.0 °F /  17.2 °C 58.1 °F /  14.5 °C 30.12in /  1019.9hPa WNW 1.2mph /  1.9km/h 1.2mph /  1.9km/h 84% 0.00in /  0mm WeatherDisplay:10.37 W/m2 OVC
12:35 63.1 °F /  17.3 °C 58.2 °F /  14.6 °C 30.12in /  1019.9hPa WNW 1.2mph /  1.9km/h   84% 0.00in /  0mm WeatherDisplay:10.37 W/m2 OVC
12:40 63.1 °F /  17.3 °C 57.9 °F /  14.4 °C 30.12in /  1019.9hPa WNW 1.2mph /  1.9km/h 1.2mph /  1.9km/h 83% 0.00in /  0mm WeatherDisplay:10.37 W/m2 OVC
12:45 63.1 °F /  17.3 °C 58.2 °F /  14.6 °C 30.11in /  1019.5hPa WNW 2.3mph /  3.7km/h 2.3mph /  3.7km/h 84% 0.00in /  0mm WeatherDisplay:10.37 W/m2 OVC
12:47 63.0 °F /  17.2 °C 58.1 °F /  14.5 °C 30.11in /  1019.5hPa WNW 2.3mph /  3.7km/h 2.3mph /  3.7km/h 84% 0.00in /  0mm WeatherDisplay:10.37 W/m2 OVC
12:52 63.2 °F /  17.3 °C 57.9 °F /  14.4 °C 30.11in /  1019.5hPa WNW 3.5mph /  5.6km/h 3.5mph /  5.6km/h 83% 0.00in /  0mm WeatherDisplay:10.37 W/m2 OVC
12:57 63.4 °F /  17.4 °C 58.1 °F /  14.5 °C 30.11in /  1019.5hPa NW 3.5mph /  5.6km/h   83% 0.00in /  0mm WeatherDisplay:10.37 W/m2 OVC
13:02 63.4 °F /  17.4 °C 58.1 °F /  14.5 °C 30.11in /  1019.5hPa NW 2.3mph /  3.7km/h   83% 0.00in /  0mm WeatherDisplay:10.37 W/m2 OVC
13:08 63.5 °F /  17.5 °C 58.2 °F /  14.6 °C 30.11in /  1019.5hPa NW 2.3mph /  3.7km/h 2.3mph /  3.7km/h 83% 0.00in /  0mm WeatherDisplay:10.37 W/m2 OVC
13:13 63.6 °F /  17.6 °C 58.0 °F /  14.4 °C 30.11in /  1019.5hPa WNW 4.6mph /  7.4km/h 4.6mph /  7.4km/h 82% 0.00in /  0mm WeatherDisplay:10.37 W/m2 OVC
13:18 63.8 °F /  17.7 °C 58.5 °F /  14.7 °C 30.11in /  1019.5hPa WNW 4.6mph /  7.4km/h   83% 0.00in /  0mm WeatherDisplay:10.37 W/m2 OVC
13:23 63.8 °F /  17.7 °C 58.5 °F /  14.7 °C 30.11in /  1019.5hPa NNW 4.6mph /  7.4km/h 4.6mph /  7.4km/h 83% 0.00in /  0mm WeatherDisplay:10.37 W/m2 OVC
13:28 64.0 °F /  17.8 °C 58.4 °F /  14.7 °C 30.10in /  1019.2hPa NW 2.3mph /  3.7km/h 2.3mph /  3.7km/h 82% 0.00in /  0mm WeatherDisplay:10.37 W/m2 OVC
13:33 64.3 °F /  17.9 °C 58.7 °F /  14.8 °C 30.09in /  1018.8hPa WNW 3.5mph /  5.6km/h 3.5mph /  5.6km/h 82% 0.00in /  0mm WeatherDisplay:10.37 W/m2 OVC
13:38 64.4 °F /  18 °C 58.4 °F /  14.7 °C 30.09in /  1018.8hPa NW 3.5mph /  5.6km/h 3.5mph /  5.6km/h 81% 0.00in /  0mm WeatherDisplay:10.37 W/m2 OVC
13:43 64.5 °F /  18.1 °C 58.9 °F /  14.9 °C 30.09in /  1018.8hPa NW 1.2mph /  1.9km/h 1.2mph /  1.9km/h 82% 0.00in /  0mm WeatherDisplay:10.37 W/m2 OVC
13:48 64.7 °F /  18.2 °C 58.7 °F /  14.8 °C 30.09in /  1018.8hPa NW 2.3mph /  3.7km/h   81% 0.00in /  0mm WeatherDisplay:10.37 W/m2 OVC
13:53 64.7 °F /  18.2 °C 58.7 °F /  14.8 °C 30.09in /  1018.8hPa WNW 2.3mph /  3.7km/h 2.3mph /  3.7km/h 81% 0.00in /  0mm WeatherDisplay:10.37 W/m2 OVC
13:58 64.8 °F /  18.2 °C 58.8 °F /  14.9 °C 30.08in /  1018.5hPa WNW 2.3mph /  3.7km/h 2.3mph /  3.7km/h 81% 0.00in /  0mm WeatherDisplay:10.37 W/m2 OVC
14:03 64.8 °F /  18.2 °C 58.8 °F /  14.9 °C 30.08in /  1018.5hPa WNW 3.5mph /  5.6km/h 3.5mph /  5.6km/h 81% 0.00in /  0mm WeatherDisplay:10.37 W/m2 OVC
14:08 64.9 °F /  18.3 °C 58.9 °F /  14.9 °C 30.08in /  1018.5hPa NW 3.5mph /  5.6km/h 3.5mph /  5.6km/h 81% 0.00in /  0mm WeatherDisplay:10.37 W/m2 OVC
14:14 65.0 °F /  18.3 °C 59.0 °F /  15 °C 30.08in /  1018.5hPa NW 3.5mph /  5.6km/h 3.5mph /  5.6km/h 81% 0.00in /  0mm WeatherDisplay:10.37 W/m2 OVC
14:19 65.2 °F /  18.4 °C 59.2 °F /  15.1 °C 30.08in /  1018.5hPa WNW 3.5mph /  5.6km/h   81% 0.00in /  0mm WeatherDisplay:10.37 W/m2 OVC
14:24 65.2 °F /  18.4 °C 59.2 °F /  15.1 °C 30.07in /  1018.2hPa WNW 3.5mph /  5.6km/h 3.5mph /  5.6km/h 81% 0.00in /  0mm WeatherDisplay:10.37 W/m2 OVC
14:29 65.3 °F /  18.5 °C 59.0 °F /  15 °C 30.07in /  1018.2hPa WNW 3.5mph /  5.6km/h 3.5mph /  5.6km/h 80% 0.00in /  0mm WeatherDisplay:10.37 W/m2 OVC
14:34 65.4 °F /  18.6 °C 59.1 °F /  15.1 °C 30.07in /  1018.2hPa NW 4.6mph /  7.4km/h 4.6mph /  7.4km/h 80% 0.00in /  0mm WeatherDisplay:10.37 W/m2 OVC
14:39 65.6 °F /  18.7 °C 59.3 °F /  15.2 °C 30.07in /  1018.2hPa NW 4.6mph /  7.4km/h 4.6mph /  7.4km/h 80% 0.00in /  0mm WeatherDisplay:10.37 W/m2 OVC
14:44 65.8 °F /  18.8 °C 59.5 °F /  15.3 °C 30.07in /  1018.2hPa NW 2.3mph /  3.7km/h   80% 0.00in /  0mm WeatherDisplay:10.37 W/m2 OVC
14:49 66.0 °F /  18.9 °C 59.7 °F /  15.4 °C 30.06in /  1017.8hPa NW 3.5mph /  5.6km/h 3.5mph /  5.6km/h 80% 0.00in /  0mm WeatherDisplay:10.37 W/m2 OVC
14:54 66.2 °F /  19 °C 59.8 °F /  15.4 °C 30.05in /  1017.5hPa NW 3.5mph /  5.6km/h 3.5mph /  5.6km/h 80% 0.00in /  0mm WeatherDisplay:10.37 W/m2 OVC
14:59 66.6 °F /  19.2 °C 59.9 °F /  15.5 °C 30.05in /  1017.5hPa NW 4.6mph /  7.4km/h 4.6mph /  7.4km/h 79% 0.00in /  0mm WeatherDisplay:10.37 W/m2 OVC
15:04 66.8 °F /  19.3 °C 59.7 °F /  15.4 °C 30.05in /  1017.5hPa NNW 4.6mph /  7.4km/h   78% 0.00in /  0mm WeatherDisplay:10.37 W/m2 OVC
15:09 67.1 °F /  19.5 °C 60.0 °F /  15.6 °C 30.05in /  1017.5hPa NW 4.6mph /  7.4km/h 4.6mph /  7.4km/h 78% 0.00in /  0mm WeatherDisplay:10.37 W/m2 OVC
15:12 67.2 °F /  19.6 °C 60.1 °F /  15.6 °C 30.05in /  1017.5hPa NNW 3.5mph /  5.6km/h   78% 0.00in /  0mm WeatherDisplay:10.37 W/m2 OVC
15:18 67.4 °F /  19.7 °C 60.3 °F /  15.7 °C 30.05in /  1017.5hPa NW 3.5mph /  5.6km/h 3.5mph /  5.6km/h 78% 0.00in /  0mm WeatherDisplay:10.37 W/m2 OVC
15:23 67.5 °F /  19.7 °C 60.0 °F /  15.6 °C 30.05in /  1017.5hPa WNW 3.5mph /  5.6km/h 3.5mph /  5.6km/h 77% 0.00in /  0mm WeatherDisplay:10.37 W/m2 OVC
15:33 67.5 °F /  19.7 °C 60.0 °F /  15.6 °C 30.04in /  1017.2hPa NW 3.5mph /  5.6km/h   77% 0.00in /  0mm WeatherDisplay:10.37 W/m2 OVC
15:38 67.4 °F /  19.7 °C 59.9 °F /  15.5 °C 30.05in /  1017.5hPa WNW 2.3mph /  3.7km/h 2.3mph /  3.7km/h 77% 0.00in /  0mm WeatherDisplay:10.37 W/m2 OVC
15:43 67.3 °F /  19.6 °C 59.8 °F /  15.4 °C 30.04in /  1017.2hPa WNW 3.5mph /  5.6km/h 3.5mph /  5.6km/h 77% 0.00in /  0mm WeatherDisplay:10.37 W/m2 OVC
15:48 67.2 °F /  19.6 °C 60.1 °F /  15.6 °C 30.05in /  1017.5hPa WNW 3.5mph /  5.6km/h 3.5mph /  5.6km/h 78% 0.00in /  0mm WeatherDisplay:10.37 W/m2 OVC
15:53 67.1 °F /  19.5 °C 60.0 °F /  15.6 °C 30.04in /  1017.2hPa WNW 2.3mph /  3.7km/h   78% 0.00in /  0mm WeatherDisplay:10.37 W/m2 OVC
15:58 67.1 °F /  19.5 °C 60.0 °F /  15.6 °C 30.05in /  1017.5hPa WNW 2.3mph /  3.7km/h 2.3mph /  3.7km/h 78% 0.00in /  0mm WeatherDisplay:10.37 W/m2 OVC
16:03 67.0 °F /  19.4 °C 59.2 °F /  15.1 °C 30.06in /  1017.8hPa WSW 5.8mph /  9.3km/h 5.8mph /  9.3km/h 76% 0.00in /  0mm WeatherDisplay:10.37 W/m2 OVC
16:09 66.1 °F /  18.9 °C 57.9 °F /  14.4 °C 30.06in /  1017.8hPa West 5.8mph /  9.3km/h 5.8mph /  9.3km/h 75% 0.00in /  0mm WeatherDisplay:10.37 W/m2 OVC
16:14 65.0 °F /  18.3 °C 56.5 °F /  13.6 °C 30.07in /  1018.2hPa ENE 6.9mph /  11.1km/h 6.9mph /  11.1km/h 74% 0.00in /  0mm WeatherDisplay:10.37 W/m2 OVC
16:19 63.5 °F /  17.5 °C 54.7 °F /  12.6 °C 30.08in /  1018.5hPa ESE 6.9mph /  11.1km/h 6.9mph /  11.1km/h 73% 0.00in /  0mm WeatherDisplay:10.37 W/m2 OVC
16:24 61.6 °F /  16.4 °C 54.3 °F /  12.4 °C 30.08in /  1018.5hPa ESE 8.1mph /  13km/h 8.1mph /  13km/h 77% 0.00in /  0mm WeatherDisplay:10.37 W/m2 OVC
16:29 59.7 °F /  15.4 °C 53.9 °F /  12.2 °C 30.09in /  1018.8hPa ESE 8.1mph /  13km/h 8.1mph /  13km/h 81% 0.00in /  0mm WeatherDisplay:10.37 W/m2 OVC
16:34 58.6 °F /  14.8 °C 53.8 °F /  12.1 °C 30.09in /  1018.8hPa SE 8.1mph /  13km/h 8.1mph /  13km/h 84% 0.00in /  0mm WeatherDisplay:10.37 W/m2 -RA
16:39 58.0 °F /  14.4 °C 53.8 °F /  12.1 °C 30.10in /  1019.2hPa East 3.5mph /  5.6km/h   86% 0.01in /  0.25mm WeatherDisplay:10.37 W/m2 -RA
16:44 57.5 °F /  14.2 °C 53.7 °F /  12.1 °C 30.10in /  1019.2hPa North 2.3mph /  3.7km/h   87% 0.05in /  1.27mm WeatherDisplay:10.37 W/m2 -RA
16:49 56.9 °F /  13.8 °C 53.4 °F /  11.9 °C 30.11in /  1019.5hPa NW 1.2mph /  1.9km/h   88% 0.07in /  1.78mm WeatherDisplay:10.37 W/m2 -RA
16:55 56.5 °F /  13.6 °C 53.3 °F /  11.8 °C 30.11in /  1019.5hPa West 1.2mph /  1.9km/h   89% 0.08in /  2.03mm WeatherDisplay:10.37 W/m2 -RA
17:00 56.3 °F /  13.5 °C 53.1 °F /  11.7 °C 30.11in /  1019.5hPa WSW 2.3mph /  3.7km/h   89% 0.10in /  2.54mm WeatherDisplay:10.37 W/m2 -RA
17:05 56.0 °F /  13.3 °C 53.1 °F /  11.7 °C 30.11in /  1019.5hPa ENE 2.3mph /  3.7km/h   90% 0.12in /  3.05mm WeatherDisplay:10.37 W/m2 OVC
17:10 55.9 °F /  13.3 °C 53.0 °F /  11.7 °C 30.11in /  1019.5hPa ESE 1.2mph /  1.9km/h 1.2mph /  1.9km/h 90% 0.12in /  3.05mm WeatherDisplay:10.37 W/m2 OVC
17:15 55.7 °F /  13.2 °C 52.8 °F /  11.6 °C 30.10in /  1019.2hPa ESE 1.2mph /  1.9km/h   90% 0.13in /  3.3mm WeatherDisplay:10.37 W/m2 -RA
17:20 55.6 °F /  13.1 °C 52.7 °F /  11.5 °C 30.11in /  1019.5hPa SE 1.2mph /  1.9km/h   90% 0.13in /  3.3mm WeatherDisplay:10.37 W/m2 -RA
17:25 55.5 °F /  13.1 °C 52.9 °F /  11.6 °C 30.11in /  1019.5hPa NNW 1.2mph /  1.9km/h   91% 0.13in /  3.3mm WeatherDisplay:10.37 W/m2 -RA
17:30 55.4 °F /  13 °C 52.8 °F /  11.6 °C 30.11in /  1019.5hPa NNE 2.3mph /  3.7km/h 2.3mph /  3.7km/h 91% 0.14in /  3.56mm WeatherDisplay:10.37 W/m2 -RA
17:35 55.4 °F /  13 °C 52.8 °F /  11.6 °C 30.11in /  1019.5hPa ENE 2.3mph /  3.7km/h   91% 0.14in /  3.56mm WeatherDisplay:10.37 W/m2 -RA
17:40 55.3 °F /  12.9 °C 52.7 °F /  11.5 °C 30.11in /  1019.5hPa WNW 1.2mph /  1.9km/h   91% 0.12in /  3.05mm WeatherDisplay:10.37 W/m2 -RA
17:45 55.3 °F /  12.9 °C 52.7 °F /  11.5 °C 30.10in /  1019.2hPa Calm     91% 0.09in /  2.29mm WeatherDisplay:10.37 W/m2 -RA
17:50 55.2 °F /  12.9 °C 52.6 °F /  11.4 °C 30.11in /  1019.5hPa Calm     91% 0.09in /  2.29mm WeatherDisplay:10.37 W/m2 -RA
17:55 55.1 °F /  12.8 °C 52.5 °F /  11.4 °C 30.11in /  1019.5hPa Calm     91% 0.09in /  2.29mm WeatherDisplay:10.37 W/m2 -RA
18:00 55.1 °F /  12.8 °C 52.8 °F /  11.6 °C 30.11in /  1019.5hPa WNW 1.2mph /  1.9km/h   92% 0.08in /  2.03mm WeatherDisplay:10.37 W/m2 -RA
18:06 55.1 °F /  12.8 °C 52.8 °F /  11.6 °C 30.11in /  1019.5hPa NW 1.2mph /  1.9km/h   92% 0.09in /  2.29mm WeatherDisplay:10.37 W/m2 -RA
18:11 55.0 °F /  12.8 °C 52.7 °F /  11.5 °C 30.11in /  1019.5hPa NW 1.2mph /  1.9km/h   92% 0.09in /  2.29mm WeatherDisplay:10.37 W/m2 -RA
18:16 55.0 °F /  12.8 °C 52.7 °F /  11.5 °C 30.11in /  1019.5hPa WNW 1.2mph /  1.9km/h   92% 0.09in /  2.29mm WeatherDisplay:10.37 W/m2 -RA
18:21 55.0 °F /  12.8 °C 52.7 °F /  11.5 °C 30.11in /  1019.5hPa WNW 1.2mph /  1.9km/h   92% 0.10in /  2.54mm WeatherDisplay:10.37 W/m2 -RA
18:26 55.0 °F /  12.8 °C 52.7 °F /  11.5 °C 30.11in /  1019.5hPa West 1.2mph /  1.9km/h   92% 0.10in /  2.54mm WeatherDisplay:10.37 W/m2 -RA
18:31 54.9 °F /  12.7 °C 52.6 °F /  11.4 °C 30.12in /  1019.9hPa West 1.2mph /  1.9km/h   92% 0.12in /  3.05mm WeatherDisplay:10.37 W/m2 -RA
18:36 54.9 °F /  12.7 °C 52.6 °F /  11.4 °C 30.12in /  1019.9hPa WNW 1.2mph /  1.9km/h   92% 0.15in /  3.81mm WeatherDisplay:10.37 W/m2 -RA
18:41 54.9 °F /  12.7 °C 52.6 °F /  11.4 °C 30.11in /  1019.5hPa NW 1.2mph /  1.9km/h   92% 0.18in /  4.57mm WeatherDisplay:10.37 W/m2 -RA
18:46 54.8 °F /  12.7 °C 52.5 °F /  11.4 °C 30.11in /  1019.5hPa North 1.2mph /  1.9km/h   92% 0.18in /  4.57mm WeatherDisplay:10.37 W/m2 -RA
18:51 54.8 °F /  12.7 °C 52.5 °F /  11.4 °C 30.11in /  1019.5hPa Calm     92% 0.18in /  4.57mm WeatherDisplay:10.37 W/m2 -RA
18:56 54.8 °F /  12.7 °C 52.5 °F /  11.4 °C 30.11in /  1019.5hPa Calm     92% 0.18in /  4.57mm WeatherDisplay:10.37 W/m2 -RA
19:01 54.7 °F /  12.6 °C 52.4 °F /  11.3 °C 30.10in /  1019.2hPa Calm     92% 0.17in /  4.32mm WeatherDisplay:10.37 W/m2 -RA
19:06 54.7 °F /  12.6 °C 52.4 °F /  11.3 °C 30.10in /  1019.2hPa Calm     92% 0.16in /  4.06mm WeatherDisplay:10.37 W/m2 -RA
19:12 54.7 °F /  12.6 °C 52.4 °F /  11.3 °C 30.10in /  1019.2hPa Calm     92% 0.16in /  4.06mm WeatherDisplay:10.37 W/m2 -RA
19:17 54.7 °F /  12.6 °C 52.4 °F /  11.3 °C 30.10in /  1019.2hPa Calm     92% 0.17in /  4.32mm WeatherDisplay:10.37 W/m2 -RA
19:22 54.6 °F /  12.6 °C 52.3 °F /  11.3 °C 30.10in /  1019.2hPa Calm     92% 0.16in /  4.06mm WeatherDisplay:10.37 W/m2 -RA
19:27 54.6 °F /  12.6 °C 52.3 °F /  11.3 °C 30.10in /  1019.2hPa Calm     92% 0.15in /  3.81mm WeatherDisplay:10.37 W/m2 -RA
19:32 54.6 °F /  12.6 °C 52.3 °F /  11.3 °C 30.10in /  1019.2hPa Calm     92% 0.13in /  3.3mm WeatherDisplay:10.37 W/m2 -RA
19:37 54.6 °F /  12.6 °C 52.6 °F /  11.4 °C 30.09in /  1018.8hPa North 1.2mph /  1.9km/h   93% 0.10in /  2.54mm WeatherDisplay:10.37 W/m2 -RA
19:42 54.6 °F /  12.6 °C 52.6 °F /  11.4 °C 30.10in /  1019.2hPa North 1.2mph /  1.9km/h   93% 0.08in /  2.03mm WeatherDisplay:10.37 W/m2 -RA
19:47 54.6 °F /  12.6 °C 52.6 °F /  11.4 °C 30.10in /  1019.2hPa Calm     93% 0.07in /  1.78mm WeatherDisplay:10.37 W/m2 -RA
19:52 54.6 °F /  12.6 °C 52.6 °F /  11.4 °C 30.09in /  1018.8hPa Calm     93% 0.07in /  1.78mm WeatherDisplay:10.37 W/m2 RA
19:57 54.5 °F /  12.5 °C 52.5 °F /  11.4 °C 30.09in /  1018.8hPa Calm     93% 0.06in /  1.52mm WeatherDisplay:10.37 W/m2 OVC
20:02 54.6 °F /  12.6 °C 52.6 °F /  11.4 °C 30.10in /  1019.2hPa NE 2.3mph /  3.7km/h   93% 0.05in /  1.27mm WeatherDisplay:10.37 W/m2 -RA
20:07 54.6 °F /  12.6 °C 52.6 °F /  11.4 °C 30.11in /  1019.5hPa East 2.3mph /  3.7km/h   93% 0.05in /  1.27mm WeatherDisplay:10.37 W/m2 -RA
20:12 54.5 °F /  12.5 °C 52.5 °F /  11.4 °C 30.11in /  1019.5hPa East 1.2mph /  1.9km/h   93% 0.04in /  1.02mm WeatherDisplay:10.37 W/m2 -RA
20:17 54.5 °F /  12.5 °C 52.5 °F /  11.4 °C 30.11in /  1019.5hPa Calm     93% 0.03in /  0.76mm WeatherDisplay:10.37 W/m2 -RA
20:23 54.5 °F /  12.5 °C 52.5 °F /  11.4 °C 30.11in /  1019.5hPa Calm     93% 0.04in /  1.02mm WeatherDisplay:10.37 W/m2 -RA
20:28 54.5 °F /  12.5 °C 52.5 °F /  11.4 °C 30.12in /  1019.9hPa Calm     93% 0.04in /  1.02mm WeatherDisplay:10.37 W/m2 -RA
20:33 54.5 °F /  12.5 °C 52.5 °F /  11.4 °C 30.12in /  1019.9hPa Calm     93% 0.03in /  0.76mm WeatherDisplay:10.37 W/m2 -RA
20:38 54.5 °F /  12.5 °C 52.5 °F /  11.4 °C 30.12in /  1019.9hPa Calm     93% 0.04in /  1.02mm WeatherDisplay:10.37 W/m2 -RA
20:43 54.4 °F /  12.4 °C 52.4 °F /  11.3 °C 30.11in /  1019.5hPa Calm     93% 0.05in /  1.27mm WeatherDisplay:10.37 W/m2 -RA
20:48 54.4 °F /  12.4 °C 52.4 °F /  11.3 °C 30.11in /  1019.5hPa Calm     93% 0.06in /  1.52mm WeatherDisplay:10.37 W/m2 -RA
20:53 54.3 °F /  12.4 °C 52.3 °F /  11.3 °C 30.11in /  1019.5hPa Calm     93% 0.05in /  1.27mm WeatherDisplay:10.37 W/m2 -RA
20:58 54.3 °F /  12.4 °C 52.3 °F /  11.3 °C 30.11in /  1019.5hPa Calm     93% 0.06in /  1.52mm WeatherDisplay:10.37 W/m2 -RA
21:03 54.3 °F /  12.4 °C 52.3 °F /  11.3 °C 30.10in /  1019.2hPa Calm     93% 0.06in /  1.52mm WeatherDisplay:10.37 W/m2 -RA
21:08 54.3 °F /  12.4 °C 52.3 °F /  11.3 °C 30.09in /  1018.8hPa Calm     93% 0.05in /  1.27mm WeatherDisplay:10.37 W/m2 -RA
21:13 54.3 °F /  12.4 °C 52.3 °F /  11.3 °C 30.10in /  1019.2hPa East 1.2mph /  1.9km/h 1.2mph /  1.9km/h 93% 0.05in /  1.27mm WeatherDisplay:10.37 W/m2 -RA
21:18 54.4 °F /  12.4 °C 52.4 °F /  11.3 °C 30.11in /  1019.5hPa East 1.2mph /  1.9km/h   93% 0.06in /  1.52mm WeatherDisplay:10.37 W/m2 -RA
21:23 54.4 °F /  12.4 °C 52.4 °F /  11.3 °C 30.11in /  1019.5hPa East 1.2mph /  1.9km/h   93% 0.05in /  1.27mm WeatherDisplay:10.37 W/m2 -RA
21:29 54.3 °F /  12.4 °C 52.3 °F /  11.3 °C 30.11in /  1019.5hPa ENE 1.2mph /  1.9km/h   93% 0.05in /  1.27mm WeatherDisplay:10.37 W/m2 -RA
21:34 54.3 °F /  12.4 °C 52.3 °F /  11.3 °C 30.11in /  1019.5hPa Calm     93% 0.04in /  1.02mm WeatherDisplay:10.37 W/m2 -RA
21:39 54.3 °F /  12.4 °C 52.3 °F /  11.3 °C 30.11in /  1019.5hPa Calm     93% 0.04in /  1.02mm WeatherDisplay:10.37 W/m2 -RA
21:44 54.2 °F /  12.3 °C 52.2 °F /  11.2 °C 30.11in /  1019.5hPa Calm     93% 0.03in /  0.76mm WeatherDisplay:10.37 W/m2 -RA
21:49 54.2 °F /  12.3 °C 52.2 °F /  11.2 °C 30.11in /  1019.5hPa Calm     93% 0.02in /  0.51mm WeatherDisplay:10.37 W/m2 -RA
21:54 54.1 °F /  12.3 °C 52.1 °F /  11.2 °C 30.11in /  1019.5hPa Calm     93% 0.02in /  0.51mm WeatherDisplay:10.37 W/m2 -RA
21:59 54.1 °F /  12.3 °C 52.1 °F /  11.2 °C 30.11in /  1019.5hPa Calm     93% 0.01in /  0.25mm WeatherDisplay:10.37 W/m2 OVC
22:04 54.0 °F /  12.2 °C 52.0 °F /  11.1 °C 30.11in /  1019.5hPa Calm     93% 0.01in /  0.25mm WeatherDisplay:10.37 W/m2 OVC
22:09 54.0 °F /  12.2 °C 52.0 °F /  11.1 °C 30.11in /  1019.5hPa Calm     93% 0.01in /  0.25mm WeatherDisplay:10.37 W/m2 OVC
22:14 53.9 °F /  12.2 °C 51.9 °F /  11.1 °C 30.11in /  1019.5hPa Calm   0.1mph /  0.2km/h 93% 0.01in /  0.25mm WeatherDisplay:10.37 W/m2 OVC
22:19 53.9 °F /  12.2 °C 51.9 °F /  11.1 °C 30.11in /  1019.5hPa NW 1.2mph /  1.9km/h   93% 0.00in /  0mm WeatherDisplay:10.37 W/m2 OVC
22:25 53.9 °F /  12.2 °C 51.9 °F /  11.1 °C 30.11in /  1019.5hPa WNW 1.2mph /  1.9km/h   93% 0.00in /  0mm WeatherDisplay:10.37 W/m2 OVC
22:30 53.9 °F /  12.2 °C 51.9 °F /  11.1 °C 30.12in /  1019.9hPa Calm     93% 0.00in /  0mm WeatherDisplay:10.37 W/m2 OVC
22:35 53.9 °F /  12.2 °C 51.9 °F /  11.1 °C 30.12in /  1019.9hPa WNW 1.2mph /  1.9km/h   93% 0.00in /  0mm WeatherDisplay:10.37 W/m2 OVC
22:40 53.9 °F /  12.2 °C 51.9 °F /  11.1 °C 30.12in /  1019.9hPa NNW 1.2mph /  1.9km/h   93% 0.00in /  0mm WeatherDisplay:10.37 W/m2 OVC
22:45 53.9 °F /  12.2 °C 51.9 °F /  11.1 °C 30.12in /  1019.9hPa NNE 1.2mph /  1.9km/h   93% 0.00in /  0mm WeatherDisplay:10.37 W/m2 OVC
22:50 53.9 °F /  12.2 °C 51.9 °F /  11.1 °C 30.12in /  1019.9hPa North 1.2mph /  1.9km/h   93% 0.00in /  0mm WeatherDisplay:10.37 W/m2 OVC
22:55 53.9 °F /  12.2 °C 51.9 °F /  11.1 °C 30.12in /  1019.9hPa NW 1.2mph /  1.9km/h   93% 0.00in /  0mm WeatherDisplay:10.37 W/m2 OVC
23:00 53.9 °F /  12.2 °C 51.9 °F /  11.1 °C 30.13in /  1020.2hPa WNW 1.2mph /  1.9km/h   93% 0.00in /  0mm WeatherDisplay:10.37 W/m2 OVC
23:05 53.9 °F /  12.2 °C 51.9 °F /  11.1 °C 30.14in /  1020.5hPa WNW 1.2mph /  1.9km/h   93% 0.00in /  0mm WeatherDisplay:10.37 W/m2 OVC
23:10 53.9 °F /  12.2 °C 51.9 °F /  11.1 °C 30.13in /  1020.2hPa NW 1.2mph /  1.9km/h 1.2mph /  1.9km/h 93% 0.00in /  0mm WeatherDisplay:10.37 W/m2 OVC
23:15 53.9 °F /  12.2 °C 51.9 °F /  11.1 °C 30.13in /  1020.2hPa WNW 1.2mph /  1.9km/h   93% 0.00in /  0mm WeatherDisplay:10.37 W/m2 -DZ
23:20 53.9 °F /  12.2 °C 51.9 °F /  11.1 °C 30.12in /  1019.9hPa WNW 1.2mph /  1.9km/h   93% 0.00in /  0mm WeatherDisplay:10.37 W/m2 -DZ
23:26 53.9 °F /  12.2 °C 51.9 °F /  11.1 °C 30.12in /  1019.9hPa WNW 1.2mph /  1.9km/h   93% 0.00in /  0mm WeatherDisplay:10.37 W/m2 BKN
23:31 53.9 °F /  12.2 °C 51.9 °F /  11.1 °C 30.13in /  1020.2hPa Calm     93% 0.00in /  0mm WeatherDisplay:10.37 W/m2 BKN
23:36 53.9 °F /  12.2 °C 51.9 °F /  11.1 °C 30.12in /  1019.9hPa WNW 1.2mph /  1.9km/h 1.2mph /  1.9km/h 93% 0.00in /  0mm WeatherDisplay:10.37 W/m2 BKN
23:41 53.9 °F /  12.2 °C 51.9 °F /  11.1 °C 30.12in /  1019.9hPa NW 4.6mph /  7.4km/h   93% 0.00in /  0mm WeatherDisplay:10.37 W/m2 BKN
23:46 53.9 °F /  12.2 °C 51.9 °F /  11.1 °C 30.11in /  1019.5hPa NE 4.6mph /  7.4km/h   93% 0.00in /  0mm WeatherDisplay:10.37 W/m2 BKN
23:51 53.9 °F /  12.2 °C 51.9 °F /  11.1 °C 30.11in /  1019.5hPa ESE 2.3mph /  3.7km/h   93% 0.01in /  0.25mm WeatherDisplay:10.37 W/m2 RA
23:56 54.0 °F /  12.2 °C 52.0 °F /  11.1 °C 30.11in /  1019.5hPa SW 2.3mph /  3.7km/h 2.3mph /  3.7km/h 93% 0.01in /  0.25mm WeatherDisplay:10.37 W/m2 -DZ
Piedmont Bend
Compliments of Weather Underground - 4 mb